sensor_id;sensor_type;location;lat;lon;timestamp;temperature;humidity
851;DHT22;412;51.400;7.480;2023-06-26T00:00:20;23.00;99.90
851;DHT22;412;51.400;7.480;2023-06-26T00:02:48;23.00;99.90
851;DHT22;412;51.400;7.480;2023-06-26T00:05:13;23.10;99.90
851;DHT22;412;51.400;7.480;2023-06-26T00:07:42;23.10;99.90
851;DHT22;412;51.400;7.480;2023-06-26T00:10:07;23.00;99.90
851;DHT22;412;51.400;7.480;2023-06-26T00:12:33;22.90;99.90
851;DHT22;412;51.400;7.480;2023-06-26T00:14:59;23.00;99.90
851;DHT22;412;51.400;7.480;2023-06-26T00:17:25;22.90;99.90
851;DHT22;412;51.400;7.480;2023-06-26T00:19:51;22.90;99.90
851;DHT22;412;51.400;7.480;2023-06-26T00:22:17;22.90;99.90
851;DHT22;412;51.400;7.480;2023-06-26T00:24:43;22.90;99.90
851;DHT22;412;51.400;7.480;2023-06-26T00:27:10;22.90;99.90
851;DHT22;412;51.400;7.480;2023-06-26T00:29:36;22.90;99.90
851;DHT22;412;51.400;7.480;2023-06-26T00:32:04;22.90;99.90
851;DHT22;412;51.400;7.480;2023-06-26T00:34:30;22.90;99.90
851;DHT22;412;51.400;7.480;2023-06-26T00:36:56;22.90;99.90
851;DHT22;412;51.400;7.480;2023-06-26T00:39:22;22.90;99.90
851;DHT22;412;51.400;7.480;2023-06-26T00:41:51;23.00;99.90
851;DHT22;412;51.400;7.480;2023-06-26T00:44:19;23.00;99.90
851;DHT22;412;51.400;7.480;2023-06-26T00:46:45;23.00;99.90
851;DHT22;412;51.400;7.480;2023-06-26T00:49:12;23.00;99.90
851;DHT22;412;51.400;7.480;2023-06-26T00:51:38;23.00;99.90
851;DHT22;412;51.400;7.480;2023-06-26T00:54:04;22.90;99.90
851;DHT22;412;51.400;7.480;2023-06-26T00:56:31;23.00;99.90
851;DHT22;412;51.400;7.480;2023-06-26T00:58:57;23.00;99.90
851;DHT22;412;51.400;7.480;2023-06-26T01:01:23;23.00;99.90
851;DHT22;412;51.400;7.480;2023-06-26T01:03:51;22.90;99.90
851;DHT22;412;51.400;7.480;2023-06-26T01:06:20;22.90;99.90
851;DHT22;412;51.400;7.480;2023-06-26T01:08:47;22.90;99.90
851;DHT22;412;51.400;7.480;2023-06-26T01:11:14;22.90;99.90
851;DHT22;412;51.400;7.480;2023-06-26T01:13:42;22.90;99.90
851;DHT22;412;51.400;7.480;2023-06-26T01:16:09;22.90;99.90
851;DHT22;412;51.400;7.480;2023-06-26T01:18:37;22.90;99.90
851;DHT22;412;51.400;7.480;2023-06-26T01:21:09;22.90;99.90
851;DHT22;412;51.400;7.480;2023-06-26T01:23:43;22.90;99.90
851;DHT22;412;51.400;7.480;2023-06-26T01:26:20;22.90;99.90
851;DHT22;412;51.400;7.480;2023-06-26T01:28:46;22.90;99.90
851;DHT22;412;51.400;7.480;2023-06-26T01:31:13;22.90;99.90
851;DHT22;412;51.400;7.480;2023-06-26T01:33:40;22.90;99.90
851;DHT22;412;51.400;7.480;2023-06-26T01:36:07;22.90;99.90
851;DHT22;412;51.400;7.480;2023-06-26T01:38:33;22.90;99.90
851;DHT22;412;51.400;7.480;2023-06-26T01:41:00;22.90;99.90
851;DHT22;412;51.400;7.480;2023-06-26T01:46:25;22.90;99.90
851;DHT22;412;51.400;7.480;2023-06-26T01:49:02;22.80;99.90
851;DHT22;412;51.400;7.480;2023-06-26T01:51:35;22.80;99.90
851;DHT22;412;51.400;7.480;2023-06-26T01:54:01;22.80;99.90
851;DHT22;412;51.400;7.480;2023-06-26T01:56:29;22.80;99.90
851;DHT22;412;51.400;7.480;2023-06-26T01:58:55;22.80;99.90
851;DHT22;412;51.400;7.480;2023-06-26T02:01:24;22.80;99.90
851;DHT22;412;51.400;7.480;2023-06-26T02:03:50;22.80;99.90
851;DHT22;412;51.400;7.480;2023-06-26T02:06:16;22.70;99.90
851;DHT22;412;51.400;7.480;2023-06-26T02:08:42;22.70;99.90
851;DHT22;412;51.400;7.480;2023-06-26T02:11:07;22.70;99.90
851;DHT22;412;51.400;7.480;2023-06-26T02:13:33;22.70;99.90
851;DHT22;412;51.400;7.480;2023-06-26T02:15:59;22.70;99.90
851;DHT22;412;51.400;7.480;2023-06-26T02:18:24;22.70;99.90
851;DHT22;412;51.400;7.480;2023-06-26T02:20:50;22.70;99.90
851;DHT22;412;51.400;7.480;2023-06-26T02:23:16;22.60;99.90
851;DHT22;412;51.400;7.480;2023-06-26T02:25:42;22.60;99.90
851;DHT22;412;51.400;7.480;2023-06-26T02:28:07;22.60;99.90
851;DHT22;412;51.400;7.480;2023-06-26T02:30:33;22.60;99.90
851;DHT22;412;51.400;7.480;2023-06-26T02:32:59;22.60;99.90
851;DHT22;412;51.400;7.480;2023-06-26T02:35:24;22.60;99.90
851;DHT22;412;51.400;7.480;2023-06-26T02:37:50;22.60;99.90
851;DHT22;412;51.400;7.480;2023-06-26T02:40:16;22.60;99.90
851;DHT22;412;51.400;7.480;2023-06-26T02:42:42;22.60;99.90
851;DHT22;412;51.400;7.480;2023-06-26T02:45:08;22.50;99.90
851;DHT22;412;51.400;7.480;2023-06-26T02:47:34;22.50;99.90
851;DHT22;412;51.400;7.480;2023-06-26T02:50:00;22.50;99.90
851;DHT22;412;51.400;7.480;2023-06-26T02:52:25;22.60;99.90
851;DHT22;412;51.400;7.480;2023-06-26T02:54:51;22.60;99.90
851;DHT22;412;51.400;7.480;2023-06-26T02:57:17;22.50;99.90
851;DHT22;412;51.400;7.480;2023-06-26T02:59:43;22.50;99.90
851;DHT22;412;51.400;7.480;2023-06-26T03:02:08;22.50;99.90
851;DHT22;412;51.400;7.480;2023-06-26T03:04:34;22.50;99.90
851;DHT22;412;51.400;7.480;2023-06-26T03:07:02;22.50;99.90
851;DHT22;412;51.400;7.480;2023-06-26T03:09:28;22.50;99.90
851;DHT22;412;51.400;7.480;2023-06-26T03:11:54;22.50;99.90
851;DHT22;412;51.400;7.480;2023-06-26T03:14:21;22.50;99.90
851;DHT22;412;51.400;7.480;2023-06-26T03:16:47;22.40;99.90
851;DHT22;412;51.400;7.480;2023-06-26T03:19:13;22.40;99.90
851;DHT22;412;51.400;7.480;2023-06-26T03:21:38;22.40;99.90
851;DHT22;412;51.400;7.480;2023-06-26T03:24:04;22.40;99.90
851;DHT22;412;51.400;7.480;2023-06-26T03:26:30;22.40;99.90
851;DHT22;412;51.400;7.480;2023-06-26T03:28:56;22.30;99.90
851;DHT22;412;51.400;7.480;2023-06-26T03:31:22;22.40;99.90
851;DHT22;412;51.400;7.480;2023-06-26T03:33:48;22.40;99.90
851;DHT22;412;51.400;7.480;2023-06-26T03:36:13;22.40;99.90
851;DHT22;412;51.400;7.480;2023-06-26T03:38:39;22.40;99.90
851;DHT22;412;51.400;7.480;2023-06-26T03:41:05;22.50;99.90
851;DHT22;412;51.400;7.480;2023-06-26T03:43:30;22.40;99.90
851;DHT22;412;51.400;7.480;2023-06-26T03:45:56;22.50;99.90
851;DHT22;412;51.400;7.480;2023-06-26T03:48:22;22.50;99.90
851;DHT22;412;51.400;7.480;2023-06-26T03:50:48;22.40;99.90
851;DHT22;412;51.400;7.480;2023-06-26T03:53:14;22.40;99.90
851;DHT22;412;51.400;7.480;2023-06-26T03:55:40;22.40;99.90
851;DHT22;412;51.400;7.480;2023-06-26T03:58:06;22.40;99.90
851;DHT22;412;51.400;7.480;2023-06-26T04:00:31;22.40;99.90
851;DHT22;412;51.400;7.480;2023-06-26T04:02:57;22.40;99.90
851;DHT22;412;51.400;7.480;2023-06-26T04:05:23;22.40;99.90
851;DHT22;412;51.400;7.480;2023-06-26T04:07:52;22.40;99.90
851;DHT22;412;51.400;7.480;2023-06-26T04:10:18;22.50;99.90
851;DHT22;412;51.400;7.480;2023-06-26T04:12:46;22.50;99.90
851;DHT22;412;51.400;7.480;2023-06-26T04:15:12;22.50;99.90
851;DHT22;412;51.400;7.480;2023-06-26T04:17:37;22.50;99.90
851;DHT22;412;51.400;7.480;2023-06-26T04:20:04;22.50;99.90
851;DHT22;412;51.400;7.480;2023-06-26T04:22:33;22.60;99.90
851;DHT22;412;51.400;7.480;2023-06-26T04:25:01;22.60;99.90
851;DHT22;412;51.400;7.480;2023-06-26T04:27:28;22.70;99.90
851;DHT22;412;51.400;7.480;2023-06-26T04:29:54;22.80;99.90
851;DHT22;412;51.400;7.480;2023-06-26T04:32:19;22.90;99.40
851;DHT22;412;51.400;7.480;2023-06-26T04:34:45;23.00;99.90
851;DHT22;412;51.400;7.480;2023-06-26T04:37:13;23.20;99.90
851;DHT22;412;51.400;7.480;2023-06-26T04:39:43;23.20;99.10
851;DHT22;412;51.400;7.480;2023-06-26T04:42:08;23.30;99.90
851;DHT22;412;51.400;7.480;2023-06-26T04:44:37;23.30;98.00
851;DHT22;412;51.400;7.480;2023-06-26T04:47:03;23.50;99.90
851;DHT22;412;51.400;7.480;2023-06-26T04:49:29;23.60;99.90
851;DHT22;412;51.400;7.480;2023-06-26T04:51:56;23.80;99.90
851;DHT22;412;51.400;7.480;2023-06-26T04:54:23;23.90;99.90
851;DHT22;412;51.400;7.480;2023-06-26T04:56:49;23.90;99.20
851;DHT22;412;51.400;7.480;2023-06-26T04:59:14;24.00;99.30
851;DHT22;412;51.400;7.480;2023-06-26T05:01:40;23.90;98.50
851;DHT22;412;51.400;7.480;2023-06-26T05:04:07;24.00;98.00
851;DHT22;412;51.400;7.480;2023-06-26T05:06:33;24.00;98.30
851;DHT22;412;51.400;7.480;2023-06-26T05:08:59;24.00;98.60
851;DHT22;412;51.400;7.480;2023-06-26T05:11:25;24.10;98.00
851;DHT22;412;51.400;7.480;2023-06-26T05:13:51;24.10;97.60
851;DHT22;412;51.400;7.480;2023-06-26T05:16:16;24.10;98.20
851;DHT22;412;51.400;7.480;2023-06-26T05:18:42;24.20;98.60
851;DHT22;412;51.400;7.480;2023-06-26T05:21:08;24.20;98.20
851;DHT22;412;51.400;7.480;2023-06-26T05:23:34;24.20;98.20
851;DHT22;412;51.400;7.480;2023-06-26T05:26:03;24.30;99.20
851;DHT22;412;51.400;7.480;2023-06-26T05:28:30;24.20;98.80
851;DHT22;412;51.400;7.480;2023-06-26T05:31:01;24.20;98.80
851;DHT22;412;51.400;7.480;2023-06-26T05:33:30;24.10;99.20
851;DHT22;412;51.400;7.480;2023-06-26T05:35:56;24.10;99.20
851;DHT22;412;51.400;7.480;2023-06-26T05:38:24;24.10;99.50
851;DHT22;412;51.400;7.480;2023-06-26T05:40:51;24.20;99.90
851;DHT22;412;51.400;7.480;2023-06-26T05:43:17;24.20;99.90
851;DHT22;412;51.400;7.480;2023-06-26T05:45:47;24.10;99.90
851;DHT22;412;51.400;7.480;2023-06-26T05:48:13;24.10;99.90
851;DHT22;412;51.400;7.480;2023-06-26T05:50:39;24.10;99.90
851;DHT22;412;51.400;7.480;2023-06-26T05:53:07;24.10;99.90
851;DHT22;412;51.400;7.480;2023-06-26T05:55:34;24.10;99.90
851;DHT22;412;51.400;7.480;2023-06-26T05:58:00;24.20;99.90
851;DHT22;412;51.400;7.480;2023-06-26T06:00:27;24.30;99.90
851;DHT22;412;51.400;7.480;2023-06-26T06:02:53;24.40;99.90
851;DHT22;412;51.400;7.480;2023-06-26T06:05:23;24.40;99.90
851;DHT22;412;51.400;7.480;2023-06-26T06:07:49;24.40;99.90
851;DHT22;412;51.400;7.480;2023-06-26T06:10:15;24.50;99.90
851;DHT22;412;51.400;7.480;2023-06-26T06:12:41;24.50;99.90
851;DHT22;412;51.400;7.480;2023-06-26T06:15:07;24.60;99.90
851;DHT22;412;51.400;7.480;2023-06-26T06:17:33;24.60;99.10
851;DHT22;412;51.400;7.480;2023-06-26T06:19:59;24.70;99.50
851;DHT22;412;51.400;7.480;2023-06-26T06:22:24;24.70;99.60
851;DHT22;412;51.400;7.480;2023-06-26T06:24:51;24.70;99.20
851;DHT22;412;51.400;7.480;2023-06-26T06:27:17;24.80;99.00
851;DHT22;412;51.400;7.480;2023-06-26T06:29:43;24.70;99.00
851;DHT22;412;51.400;7.480;2023-06-26T06:32:09;24.80;99.00
851;DHT22;412;51.400;7.480;2023-06-26T06:34:34;24.70;98.70
851;DHT22;412;51.400;7.480;2023-06-26T06:37:01;24.80;98.80
851;DHT22;412;51.400;7.480;2023-06-26T06:39:27;24.80;98.80
851;DHT22;412;51.400;7.480;2023-06-26T06:41:52;24.80;98.50
851;DHT22;412;51.400;7.480;2023-06-26T06:44:18;24.80;98.30
851;DHT22;412;51.400;7.480;2023-06-26T06:46:45;24.90;99.00
851;DHT22;412;51.400;7.480;2023-06-26T06:49:11;24.90;98.60
851;DHT22;412;51.400;7.480;2023-06-26T06:51:36;24.90;98.90
851;DHT22;412;51.400;7.480;2023-06-26T06:54:02;24.90;99.30
851;DHT22;412;51.400;7.480;2023-06-26T06:56:28;25.00;99.20
851;DHT22;412;51.400;7.480;2023-06-26T06:58:54;25.00;99.20
851;DHT22;412;51.400;7.480;2023-06-26T07:01:19;25.00;98.00
851;DHT22;412;51.400;7.480;2023-06-26T07:03:48;24.90;98.00
851;DHT22;412;51.400;7.480;2023-06-26T07:06:14;24.90;98.30
851;DHT22;412;51.400;7.480;2023-06-26T07:08:40;24.90;98.80
851;DHT22;412;51.400;7.480;2023-06-26T07:11:05;24.80;98.40
851;DHT22;412;51.400;7.480;2023-06-26T07:13:31;24.70;98.40
851;DHT22;412;51.400;7.480;2023-06-26T07:15:57;24.70;98.60
851;DHT22;412;51.400;7.480;2023-06-26T07:18:22;24.60;99.50
851;DHT22;412;51.400;7.480;2023-06-26T07:20:48;24.50;99.20
851;DHT22;412;51.400;7.480;2023-06-26T07:23:14;24.50;99.30
851;DHT22;412;51.400;7.480;2023-06-26T07:25:40;24.50;99.70
851;DHT22;412;51.400;7.480;2023-06-26T07:28:12;24.50;99.90
851;DHT22;412;51.400;7.480;2023-06-26T07:30:38;24.50;99.60
851;DHT22;412;51.400;7.480;2023-06-26T07:33:03;24.50;99.90
851;DHT22;412;51.400;7.480;2023-06-26T07:35:29;24.40;99.90
851;DHT22;412;51.400;7.480;2023-06-26T07:37:55;24.30;99.90
851;DHT22;412;51.400;7.480;2023-06-26T07:40:21;24.30;99.90
851;DHT22;412;51.400;7.480;2023-06-26T07:42:47;24.30;99.90
851;DHT22;412;51.400;7.480;2023-06-26T07:45:13;24.30;99.90
851;DHT22;412;51.400;7.480;2023-06-26T07:47:39;24.30;99.90
851;DHT22;412;51.400;7.480;2023-06-26T07:50:05;24.40;99.90
851;DHT22;412;51.400;7.480;2023-06-26T07:52:30;24.40;99.90
851;DHT22;412;51.400;7.480;2023-06-26T07:54:57;24.50;99.90
851;DHT22;412;51.400;7.480;2023-06-26T07:57:23;24.60;99.90
851;DHT22;412;51.400;7.480;2023-06-26T07:59:49;24.70;99.90
851;DHT22;412;51.400;7.480;2023-06-26T08:02:15;24.70;99.90
851;DHT22;412;51.400;7.480;2023-06-26T08:04:41;24.80;99.90
851;DHT22;412;51.400;7.480;2023-06-26T08:07:07;24.90;99.80
851;DHT22;412;51.400;7.480;2023-06-26T08:09:33;25.00;99.90
851;DHT22;412;51.400;7.480;2023-06-26T08:11:59;25.00;99.00
851;DHT22;412;51.400;7.480;2023-06-26T08:14:25;25.10;99.90
851;DHT22;412;51.400;7.480;2023-06-26T08:16:51;25.20;99.90
851;DHT22;412;51.400;7.480;2023-06-26T08:19:20;25.30;99.90
851;DHT22;412;51.400;7.480;2023-06-26T08:21:47;25.40;98.70
851;DHT22;412;51.400;7.480;2023-06-26T08:24:14;25.50;98.30
851;DHT22;412;51.400;7.480;2023-06-26T08:26:44;25.50;98.10
851;DHT22;412;51.400;7.480;2023-06-26T08:29:10;25.60;98.20
851;DHT22;412;51.400;7.480;2023-06-26T08:31:35;25.70;98.00
851;DHT22;412;51.400;7.480;2023-06-26T08:34:03;25.80;98.30
851;DHT22;412;51.400;7.480;2023-06-26T08:36:29;25.90;97.50
851;DHT22;412;51.400;7.480;2023-06-26T08:38:54;25.90;98.00
851;DHT22;412;51.400;7.480;2023-06-26T08:41:20;25.90;96.80
851;DHT22;412;51.400;7.480;2023-06-26T08:43:46;25.90;97.10
851;DHT22;412;51.400;7.480;2023-06-26T08:46:12;25.90;97.40
851;DHT22;412;51.400;7.480;2023-06-26T08:48:39;25.80;97.90
851;DHT22;412;51.400;7.480;2023-06-26T08:51:13;25.70;97.00
851;DHT22;412;51.400;7.480;2023-06-26T08:53:58;25.60;97.50
851;DHT22;412;51.400;7.480;2023-06-26T08:56:28;25.50;98.30
851;DHT22;412;51.400;7.480;2023-06-26T08:58:57;25.50;99.20
851;DHT22;412;51.400;7.480;2023-06-26T09:01:24;25.40;99.20
851;DHT22;412;51.400;7.480;2023-06-26T09:03:51;25.40;99.30
851;DHT22;412;51.400;7.480;2023-06-26T09:06:17;25.40;99.20
851;DHT22;412;51.400;7.480;2023-06-26T09:08:44;25.40;98.70
851;DHT22;412;51.400;7.480;2023-06-26T09:11:09;25.40;99.10
851;DHT22;412;51.400;7.480;2023-06-26T09:13:35;25.50;99.90
851;DHT22;412;51.400;7.480;2023-06-26T09:16:06;25.60;99.80
851;DHT22;412;51.400;7.480;2023-06-26T09:18:33;25.70;99.20
851;DHT22;412;51.400;7.480;2023-06-26T09:20:59;25.80;99.40
851;DHT22;412;51.400;7.480;2023-06-26T09:23:26;25.80;99.90
851;DHT22;412;51.400;7.480;2023-06-26T09:25:52;25.90;99.00
851;DHT22;412;51.400;7.480;2023-06-26T09:28:20;25.90;99.20
851;DHT22;412;51.400;7.480;2023-06-26T09:30:46;25.80;99.10
851;DHT22;412;51.400;7.480;2023-06-26T09:33:16;25.80;98.50
851;DHT22;412;51.400;7.480;2023-06-26T09:35:43;25.70;98.50
851;DHT22;412;51.400;7.480;2023-06-26T09:38:12;25.60;99.10
851;DHT22;412;51.400;7.480;2023-06-26T09:40:39;25.50;98.50
851;DHT22;412;51.400;7.480;2023-06-26T09:43:06;25.40;98.60
851;DHT22;412;51.400;7.480;2023-06-26T09:45:33;25.50;99.00
851;DHT22;412;51.400;7.480;2023-06-26T09:48:00;25.50;98.40
851;DHT22;412;51.400;7.480;2023-06-26T09:50:28;25.40;98.60
851;DHT22;412;51.400;7.480;2023-06-26T09:52:55;25.50;99.20
851;DHT22;412;51.400;7.480;2023-06-26T09:55:21;25.60;99.10
851;DHT22;412;51.400;7.480;2023-06-26T09:57:49;25.70;99.90
851;DHT22;412;51.400;7.480;2023-06-26T10:00:15;25.90;99.90
851;DHT22;412;51.400;7.480;2023-06-26T10:02:43;26.10;97.40
851;DHT22;412;51.400;7.480;2023-06-26T10:05:10;26.20;96.80
851;DHT22;412;51.400;7.480;2023-06-26T10:07:37;26.20;96.10
851;DHT22;412;51.400;7.480;2023-06-26T10:10:05;26.20;95.50
851;DHT22;412;51.400;7.480;2023-06-26T10:12:32;26.20;95.30
851;DHT22;412;51.400;7.480;2023-06-26T10:15:02;26.20;94.50
851;DHT22;412;51.400;7.480;2023-06-26T10:17:32;26.20;94.90
851;DHT22;412;51.400;7.480;2023-06-26T10:20:02;26.40;95.40
851;DHT22;412;51.400;7.480;2023-06-26T10:22:31;26.60;94.20
851;DHT22;412;51.400;7.480;2023-06-26T10:25:00;26.80;93.50
851;DHT22;412;51.400;7.480;2023-06-26T10:27:35;26.90;92.90
851;DHT22;412;51.400;7.480;2023-06-26T10:30:04;26.90;92.90
851;DHT22;412;51.400;7.480;2023-06-26T10:32:32;27.00;92.60
851;DHT22;412;51.400;7.480;2023-06-26T10:34:59;27.10;93.10
851;DHT22;412;51.400;7.480;2023-06-26T10:37:47;27.30;93.70
851;DHT22;412;51.400;7.480;2023-06-26T10:40:14;27.40;89.70
851;DHT22;412;51.400;7.480;2023-06-26T10:42:40;27.50;88.00
851;DHT22;412;51.400;7.480;2023-06-26T10:45:20;27.60;85.30
851;DHT22;412;51.400;7.480;2023-06-26T10:47:47;27.70;85.10
851;DHT22;412;51.400;7.480;2023-06-26T10:50:28;27.80;87.00
851;DHT22;412;51.400;7.480;2023-06-26T10:53:34;27.90;85.40
851;DHT22;412;51.400;7.480;2023-06-26T10:56:02;28.00;86.90
851;DHT22;412;51.400;7.480;2023-06-26T10:58:34;28.10;83.90
851;DHT22;412;51.400;7.480;2023-06-26T11:03:45;28.20;79.70
851;DHT22;412;51.400;7.480;2023-06-26T11:06:11;28.20;80.10
851;DHT22;412;51.400;7.480;2023-06-26T11:09:11;28.20;82.30
851;DHT22;412;51.400;7.480;2023-06-26T11:14:24;28.30;79.10
851;DHT22;412;51.400;7.480;2023-06-26T11:16:51;28.40;85.50
851;DHT22;412;51.400;7.480;2023-06-26T11:19:18;28.30;79.90
851;DHT22;412;51.400;7.480;2023-06-26T11:21:44;28.50;82.20
851;DHT22;412;51.400;7.480;2023-06-26T11:24:13;28.40;78.80
851;DHT22;412;51.400;7.480;2023-06-26T11:26:43;28.30;80.60
851;DHT22;412;51.400;7.480;2023-06-26T11:29:10;28.10;78.60
851;DHT22;412;51.400;7.480;2023-06-26T11:31:37;28.00;79.30
851;DHT22;412;51.400;7.480;2023-06-26T11:34:07;27.90;79.80
851;DHT22;412;51.400;7.480;2023-06-26T11:36:34;28.00;78.40
851;DHT22;412;51.400;7.480;2023-06-26T11:39:04;27.90;73.10
851;DHT22;412;51.400;7.480;2023-06-26T11:41:35;27.90;77.60
851;DHT22;412;51.400;7.480;2023-06-26T11:44:10;27.90;77.40
851;DHT22;412;51.400;7.480;2023-06-26T11:46:37;28.00;83.10
851;DHT22;412;51.400;7.480;2023-06-26T11:49:07;28.10;78.40
851;DHT22;412;51.400;7.480;2023-06-26T11:51:33;28.00;77.80
851;DHT22;412;51.400;7.480;2023-06-26T11:54:02;27.90;76.60
851;DHT22;412;51.400;7.480;2023-06-26T11:56:31;27.90;80.00
851;DHT22;412;51.400;7.480;2023-06-26T11:59:07;28.00;80.10
851;DHT22;412;51.400;7.480;2023-06-26T12:01:43;28.00;79.80
851;DHT22;412;51.400;7.480;2023-06-26T12:04:14;28.00;81.40
851;DHT22;412;51.400;7.480;2023-06-26T12:06:47;27.80;81.80
851;DHT22;412;51.400;7.480;2023-06-26T12:09:14;27.70;79.80
851;DHT22;412;51.400;7.480;2023-06-26T12:11:44;27.40;79.70
851;DHT22;412;51.400;7.480;2023-06-26T12:14:11;27.20;81.20
851;DHT22;412;51.400;7.480;2023-06-26T12:16:37;27.10;84.80
851;DHT22;412;51.400;7.480;2023-06-26T12:19:07;27.20;84.20
851;DHT22;412;51.400;7.480;2023-06-26T12:24:00;27.30;86.20
851;DHT22;412;51.400;7.480;2023-06-26T12:26:29;27.40;82.10
851;DHT22;412;51.400;7.480;2023-06-26T12:29:07;27.40;77.30
851;DHT22;412;51.400;7.480;2023-06-26T12:31:34;27.40;76.70
851;DHT22;412;51.400;7.480;2023-06-26T12:34:01;27.30;76.20
851;DHT22;412;51.400;7.480;2023-06-26T12:36:28;27.30;77.00
851;DHT22;412;51.400;7.480;2023-06-26T12:38:54;27.30;77.00
851;DHT22;412;51.400;7.480;2023-06-26T12:41:24;27.20;77.80
851;DHT22;412;51.400;7.480;2023-06-26T12:43:56;27.10;78.00
851;DHT22;412;51.400;7.480;2023-06-26T12:46:33;27.00;79.00
851;DHT22;412;51.400;7.480;2023-06-26T12:49:00;26.90;80.40
851;DHT22;412;51.400;7.480;2023-06-26T12:51:29;26.80;78.00
851;DHT22;412;51.400;7.480;2023-06-26T12:53:55;26.60;76.90
851;DHT22;412;51.400;7.480;2023-06-26T12:56:20;26.50;75.80
851;DHT22;412;51.400;7.480;2023-06-26T12:58:46;26.40;72.60
851;DHT22;412;51.400;7.480;2023-06-26T13:01:12;26.40;73.40
851;DHT22;412;51.400;7.480;2023-06-26T13:03:41;26.50;73.30
851;DHT22;412;51.400;7.480;2023-06-26T13:06:07;26.60;73.80
851;DHT22;412;51.400;7.480;2023-06-26T13:08:35;26.70;72.10
851;DHT22;412;51.400;7.480;2023-06-26T13:11:02;26.90;71.90
851;DHT22;412;51.400;7.480;2023-06-26T13:13:28;27.00;72.10
851;DHT22;412;51.400;7.480;2023-06-26T13:15:53;27.00;70.30
851;DHT22;412;51.400;7.480;2023-06-26T13:18:19;27.10;70.00
851;DHT22;412;51.400;7.480;2023-06-26T13:20:46;27.20;72.50
851;DHT22;412;51.400;7.480;2023-06-26T13:23:12;27.20;70.50
851;DHT22;412;51.400;7.480;2023-06-26T13:25:37;27.20;68.30
851;DHT22;412;51.400;7.480;2023-06-26T13:28:03;27.00;65.50
851;DHT22;412;51.400;7.480;2023-06-26T13:30:29;27.00;66.80
851;DHT22;412;51.400;7.480;2023-06-26T13:32:55;27.10;67.50
851;DHT22;412;51.400;7.480;2023-06-26T13:35:21;27.20;67.70
851;DHT22;412;51.400;7.480;2023-06-26T13:37:46;27.30;69.40
851;DHT22;412;51.400;7.480;2023-06-26T13:40:12;27.30;67.20
851;DHT22;412;51.400;7.480;2023-06-26T13:42:38;27.10;65.70
851;DHT22;412;51.400;7.480;2023-06-26T13:45:05;26.90;64.40
851;DHT22;412;51.400;7.480;2023-06-26T13:47:31;26.80;65.10
851;DHT22;412;51.400;7.480;2023-06-26T13:49:57;26.60;65.00
851;DHT22;412;51.400;7.480;2023-06-26T13:52:23;26.60;63.40
851;DHT22;412;51.400;7.480;2023-06-26T13:54:49;26.60;65.70
851;DHT22;412;51.400;7.480;2023-06-26T13:57:15;26.70;64.70
851;DHT22;412;51.400;7.480;2023-06-26T13:59:40;26.70;63.50
851;DHT22;412;51.400;7.480;2023-06-26T14:02:07;26.80;62.10
851;DHT22;412;51.400;7.480;2023-06-26T14:04:38;26.90;64.60
851;DHT22;412;51.400;7.480;2023-06-26T14:07:04;26.90;65.00
851;DHT22;412;51.400;7.480;2023-06-26T14:09:36;27.00;66.00
851;DHT22;412;51.400;7.480;2023-06-26T14:12:01;26.80;63.60
851;DHT22;412;51.400;7.480;2023-06-26T14:14:27;26.80;66.60
851;DHT22;412;51.400;7.480;2023-06-26T14:16:53;26.80;65.20
851;DHT22;412;51.400;7.480;2023-06-26T14:19:19;26.80;64.00
851;DHT22;412;51.400;7.480;2023-06-26T14:21:47;26.70;63.80
851;DHT22;412;51.400;7.480;2023-06-26T14:24:12;26.60;63.00
851;DHT22;412;51.400;7.480;2023-06-26T14:26:38;26.50;64.30
851;DHT22;412;51.400;7.480;2023-06-26T14:29:04;26.50;66.00
851;DHT22;412;51.400;7.480;2023-06-26T14:31:32;26.50;63.80
851;DHT22;412;51.400;7.480;2023-06-26T14:33:58;26.30;63.50
851;DHT22;412;51.400;7.480;2023-06-26T14:36:24;26.20;64.60
851;DHT22;412;51.400;7.480;2023-06-26T14:38:52;26.10;62.90
851;DHT22;412;51.400;7.480;2023-06-26T14:41:18;26.10;65.30
851;DHT22;412;51.400;7.480;2023-06-26T14:43:44;26.10;65.70
851;DHT22;412;51.400;7.480;2023-06-26T14:46:11;26.10;64.50
851;DHT22;412;51.400;7.480;2023-06-26T14:48:42;25.90;63.20
851;DHT22;412;51.400;7.480;2023-06-26T14:51:08;25.90;65.80
851;DHT22;412;51.400;7.480;2023-06-26T14:53:34;25.80;62.80
851;DHT22;412;51.400;7.480;2023-06-26T14:56:00;25.70;65.00
851;DHT22;412;51.400;7.480;2023-06-26T14:58:25;25.80;64.30
851;DHT22;412;51.400;7.480;2023-06-26T15:00:51;25.80;63.00
851;DHT22;412;51.400;7.480;2023-06-26T15:03:17;25.80;62.80
851;DHT22;412;51.400;7.480;2023-06-26T15:05:42;25.80;61.40
851;DHT22;412;51.400;7.480;2023-06-26T15:08:08;25.90;63.50
851;DHT22;412;51.400;7.480;2023-06-26T15:10:35;25.90;62.90
851;DHT22;412;51.400;7.480;2023-06-26T15:13:01;25.90;61.90
851;DHT22;412;51.400;7.480;2023-06-26T15:15:26;25.90;59.80
851;DHT22;412;51.400;7.480;2023-06-26T15:17:52;25.80;60.30
851;DHT22;412;51.400;7.480;2023-06-26T15:20:18;25.70;59.30
851;DHT22;412;51.400;7.480;2023-06-26T15:22:43;25.70;59.40
851;DHT22;412;51.400;7.480;2023-06-26T15:25:09;25.60;62.70
851;DHT22;412;51.400;7.480;2023-06-26T15:27:36;25.60;59.20
851;DHT22;412;51.400;7.480;2023-06-26T15:30:02;25.40;58.90
851;DHT22;412;51.400;7.480;2023-06-26T15:32:27;25.40;61.20
851;DHT22;412;51.400;7.480;2023-06-26T15:34:53;25.40;61.20
851;DHT22;412;51.400;7.480;2023-06-26T15:37:19;25.40;59.60
851;DHT22;412;51.400;7.480;2023-06-26T15:39:45;25.30;58.50
851;DHT22;412;51.400;7.480;2023-06-26T15:42:11;25.20;58.20
851;DHT22;412;51.400;7.480;2023-06-26T15:44:37;25.10;59.50
851;DHT22;412;51.400;7.480;2023-06-26T15:47:03;25.10;59.80
851;DHT22;412;51.400;7.480;2023-06-26T15:49:29;25.00;59.80
851;DHT22;412;51.400;7.480;2023-06-26T15:51:54;25.00;60.90
851;DHT22;412;51.400;7.480;2023-06-26T15:54:20;24.90;58.90
851;DHT22;412;51.400;7.480;2023-06-26T15:56:47;24.90;60.20
851;DHT22;412;51.400;7.480;2023-06-26T15:59:13;24.90;60.50
851;DHT22;412;51.400;7.480;2023-06-26T16:01:40;24.90;60.20
851;DHT22;412;51.400;7.480;2023-06-26T16:04:06;24.90;60.30
851;DHT22;412;51.400;7.480;2023-06-26T16:06:32;24.90;60.40
851;DHT22;412;51.400;7.480;2023-06-26T16:08:58;24.90;62.10
851;DHT22;412;51.400;7.480;2023-06-26T16:11:23;24.90;62.90
851;DHT22;412;51.400;7.480;2023-06-26T16:13:49;24.90;64.00
851;DHT22;412;51.400;7.480;2023-06-26T16:16:15;24.90;62.90
851;DHT22;412;51.400;7.480;2023-06-26T16:18:41;24.90;63.80
851;DHT22;412;51.400;7.480;2023-06-26T16:21:06;24.90;64.60
851;DHT22;412;51.400;7.480;2023-06-26T16:23:32;24.80;63.90
851;DHT22;412;51.400;7.480;2023-06-26T16:25:59;24.70;64.20
851;DHT22;412;51.400;7.480;2023-06-26T16:28:25;24.70;66.00
851;DHT22;412;51.400;7.480;2023-06-26T16:30:50;24.70;67.40
851;DHT22;412;51.400;7.480;2023-06-26T16:33:16;24.70;66.50
851;DHT22;412;51.400;7.480;2023-06-26T16:35:42;24.60;66.90
851;DHT22;412;51.400;7.480;2023-06-26T16:38:08;24.60;67.70
851;DHT22;412;51.400;7.480;2023-06-26T16:40:35;24.60;69.40
851;DHT22;412;51.400;7.480;2023-06-26T16:43:01;24.50;66.90